createdAt,value
2022-12-14T00:01:52.407Z,1.60
2022-12-14T00:04:20.617Z,1.40
2022-12-14T00:06:48.443Z,1.50
2022-12-14T00:09:16.129Z,1.50
2022-12-14T00:11:43.524Z,1.50
2022-12-14T00:14:11.124Z,1.60
2022-12-14T00:16:38.527Z,1.50
2022-12-14T00:19:05.990Z,1.50
2022-12-14T00:21:33.937Z,1.60
2022-12-14T00:24:01.910Z,1.50
2022-12-14T00:26:32.037Z,1.50
2022-12-14T00:29:01.695Z,1.90
2022-12-14T00:31:29.977Z,1.60
2022-12-14T00:33:57.635Z,1.60
2022-12-14T00:36:27.762Z,1.60
2022-12-14T00:38:55.259Z,1.70
2022-12-14T00:41:23.075Z,1.60
2022-12-14T00:43:50.858Z,1.60
2022-12-14T00:46:18.482Z,1.60
2022-12-14T00:48:46.489Z,1.60
2022-12-14T00:51:17.136Z,1.70
2022-12-14T00:53:44.995Z,1.90
2022-12-14T00:56:12.948Z,1.60
2022-12-14T00:58:41.786Z,1.70
2022-12-14T01:01:14.955Z,1.70
2022-12-14T01:03:42.669Z,1.70
2022-12-14T01:06:21.833Z,1.70
2022-12-14T01:08:49.473Z,1.70
2022-12-14T01:11:17.172Z,1.70
2022-12-14T01:13:44.620Z,1.70
2022-12-14T01:16:17.934Z,1.80
2022-12-14T01:18:45.640Z,1.80
2022-12-14T01:21:20.957Z,1.80
2022-12-14T01:23:51.987Z,1.80
2022-12-14T01:26:21.146Z,1.80
2022-12-14T01:28:56.170Z,1.80
2022-12-14T01:31:27.824Z,1.80
2022-12-14T01:33:55.790Z,1.80
2022-12-14T01:36:31.680Z,1.90
2022-12-14T01:39:01.571Z,1.90
2022-12-14T01:41:31.890Z,1.90
2022-12-14T01:44:01.303Z,2.40
2022-12-14T01:46:34.590Z,2.00
2022-12-14T01:49:15.372Z,1.90
2022-12-14T01:51:48.297Z,2.00
2022-12-14T01:54:16.769Z,2.00
2022-12-14T01:56:46.984Z,2.00
2022-12-14T01:59:23.207Z,2.00
2022-12-14T02:01:52.116Z,2.00
2022-12-14T02:04:20.519Z,2.00
2022-12-14T02:06:50.134Z,2.00
2022-12-14T02:09:22.874Z,2.00
2022-12-14T02:11:56.137Z,1.90
2022-12-14T02:14:24.396Z,1.90
2022-12-14T02:16:54.948Z,1.90
2022-12-14T02:19:22.312Z,1.90
2022-12-14T02:22:04.767Z,1.90
2022-12-14T02:25:10.051Z,1.90
2022-12-14T02:28:03.814Z,1.80
2022-12-14T02:30:39.853Z,1.80
2022-12-14T02:33:32.201Z,1.80
2022-12-14T02:36:20.923Z,1.90
2022-12-14T02:39:11.219Z,1.80
2022-12-14T02:42:15.297Z,1.90
2022-12-14T02:45:18.723Z,1.90
2022-12-14T02:47:55.614Z,1.90
2022-12-14T02:50:39.069Z,1.90
2022-12-14T02:53:24.983Z,1.90
2022-12-14T02:55:54.341Z,1.90
2022-12-14T02:58:31.273Z,1.90
2022-12-14T03:00:59.612Z,1.90
2022-12-14T03:03:28.779Z,1.90
2022-12-14T03:05:57.629Z,1.90
2022-12-14T03:08:27.610Z,1.90
2022-12-14T03:11:04.852Z,1.80
2022-12-14T03:13:44.588Z,1.80
2022-12-14T03:16:30.484Z,1.90
2022-12-14T03:19:00.445Z,1.90
2022-12-14T03:21:36.483Z,1.80
2022-12-14T03:24:19.772Z,1.80
2022-12-14T03:26:56.400Z,1.80
2022-12-14T03:29:29.652Z,1.80
2022-12-14T03:32:01.312Z,1.80
2022-12-14T03:34:32.592Z,1.80
2022-12-14T03:37:12.988Z,1.90
2022-12-14T03:39:42.683Z,1.80
2022-12-14T03:42:31.705Z,1.80
2022-12-14T03:45:32.003Z,2.10
2022-12-14T03:48:13.377Z,1.80
2022-12-14T03:50:49.663Z,1.80
2022-12-14T03:53:26.482Z,1.70
2022-12-14T03:56:17.966Z,1.80
2022-12-14T03:59:14.112Z,1.70
2022-12-14T04:02:04.325Z,1.70
2022-12-14T04:04:52.162Z,1.70
2022-12-14T04:07:45.897Z,1.70
2022-12-14T04:10:41.724Z,1.70
2022-12-14T04:13:32.815Z,1.70
2022-12-14T04:16:28.821Z,1.70
2022-12-14T04:19:01.001Z,1.70
2022-12-14T04:21:41.254Z,2.00
2022-12-14T04:24:37.465Z,1.80
2022-12-14T04:27:16.837Z,1.80
2022-12-14T04:29:58.126Z,1.80
2022-12-14T04:32:29.971Z,1.80
2022-12-14T04:35:23.487Z,1.80
2022-12-14T04:38:00.761Z,2.20
2022-12-14T04:40:33.576Z,1.90
2022-12-14T04:43:10.046Z,1.90
2022-12-14T04:45:56.201Z,1.90
2022-12-14T04:48:36.864Z,1.90
2022-12-14T04:51:11.240Z,1.90
2022-12-14T04:53:41.019Z,1.90
2022-12-14T04:56:30.599Z,1.90
2022-12-14T04:58:58.679Z,2.00
2022-12-14T05:01:59.039Z,2.00
2022-12-14T05:05:05.350Z,2.00
2022-12-14T05:07:35.646Z,2.00
2022-12-14T05:10:19.793Z,2.10
2022-12-14T05:13:02.900Z,2.00
2022-12-14T05:15:43.653Z,2.10
2022-12-14T05:18:11.412Z,2.10
2022-12-14T05:20:38.751Z,2.10
2022-12-14T05:23:06.432Z,2.10
2022-12-14T05:25:34.218Z,2.20
2022-12-14T05:28:01.657Z,2.20
2022-12-14T05:30:29.194Z,2.20
2022-12-14T05:32:57.252Z,2.20
2022-12-14T05:35:24.569Z,2.20
2022-12-14T05:37:52.149Z,2.30
2022-12-14T05:40:19.511Z,2.30
2022-12-14T05:42:50.985Z,2.30
2022-12-14T05:45:21.460Z,2.30
2022-12-14T05:47:48.758Z,2.40
2022-12-14T05:50:16.476Z,2.30
2022-12-14T05:52:43.810Z,2.30
2022-12-14T05:55:11.156Z,2.30
2022-12-14T05:57:38.523Z,2.40
2022-12-14T06:00:06.235Z,2.30
2022-12-14T06:02:33.860Z,2.40
2022-12-14T06:05:01.213Z,2.40
2022-12-14T06:07:28.989Z,2.40
2022-12-14T06:09:56.348Z,2.40
2022-12-14T06:12:23.657Z,2.40
2022-12-14T06:14:50.998Z,2.40
2022-12-14T06:17:18.807Z,2.40
2022-12-14T06:19:49.750Z,2.40
2022-12-14T06:22:18.756Z,2.40
2022-12-14T06:24:46.173Z,2.30
2022-12-14T06:27:13.700Z,2.40
2022-12-14T06:29:41.041Z,2.40
2022-12-14T06:32:08.414Z,2.40
2022-12-14T06:34:39.776Z,2.40
2022-12-14T06:37:09.516Z,2.40
2022-12-14T06:39:37.418Z,2.40
2022-12-14T06:42:05.583Z,2.40
2022-12-14T06:44:35.079Z,2.40
2022-12-14T06:47:02.480Z,2.40
2022-12-14T06:49:29.932Z,2.40
2022-12-14T06:51:57.189Z,2.40
2022-12-14T06:54:24.472Z,2.40
2022-12-14T06:56:51.891Z,2.40
2022-12-14T06:59:19.399Z,2.40
2022-12-14T07:01:50.266Z,2.40
2022-12-14T07:04:20.889Z,2.40
2022-12-14T07:06:48.267Z,2.40
2022-12-14T07:09:15.567Z,2.40
2022-12-14T07:11:42.885Z,2.40
2022-12-14T07:14:15.922Z,2.40
2022-12-14T07:16:47.751Z,2.40
2022-12-14T07:19:16.357Z,2.40
2022-12-14T07:21:43.665Z,2.40
2022-12-14T07:24:10.959Z,2.50
2022-12-14T07:26:38.489Z,2.50
2022-12-14T07:29:06.523Z,2.50
2022-12-14T07:31:34.210Z,2.50
2022-12-14T07:34:01.582Z,2.50
2022-12-14T07:36:30.789Z,2.50
2022-12-14T07:38:58.476Z,2.50
2022-12-14T07:41:30.646Z,2.50
2022-12-14T07:44:00.584Z,2.50
2022-12-14T07:46:30.402Z,2.60
2022-12-14T07:48:59.098Z,2.60
2022-12-14T07:51:30.536Z,2.60
2022-12-14T07:53:58.677Z,2.60
2022-12-14T07:56:28.679Z,2.50
2022-12-14T07:58:58.093Z,2.50
2022-12-14T08:01:31.563Z,2.60
2022-12-14T08:04:04.985Z,2.50
2022-12-14T08:06:33.883Z,2.60
2022-12-14T08:09:01.882Z,2.60
2022-12-14T08:11:29.608Z,2.70
2022-12-14T08:14:02.787Z,2.70
2022-12-14T08:16:32.792Z,2.70
2022-12-14T08:19:01.447Z,2.70
2022-12-14T08:21:29.479Z,2.70
2022-12-14T08:23:57.919Z,2.70
2022-12-14T08:26:31.521Z,2.70
2022-12-14T08:29:00.878Z,2.70
2022-12-14T08:31:28.625Z,2.80
2022-12-14T08:33:57.868Z,2.70
2022-12-14T08:36:30.665Z,2.70
2022-12-14T08:39:10.002Z,2.70
2022-12-14T08:41:37.713Z,2.70
2022-12-14T08:44:05.825Z,2.70
2022-12-14T08:46:35.336Z,2.70
2022-12-14T08:49:03.535Z,2.70
2022-12-14T08:51:32.025Z,2.70
2022-12-14T08:53:59.690Z,2.60
2022-12-14T08:56:28.133Z,2.70
2022-12-14T08:58:56.629Z,2.70
2022-12-14T09:01:33.505Z,2.70
2022-12-14T09:04:07.616Z,2.60
2022-12-14T09:06:37.544Z,2.60
2022-12-14T09:09:10.472Z,2.60
2022-12-14T09:11:43.890Z,2.90
2022-12-14T09:14:11.573Z,2.60
2022-12-14T09:16:40.071Z,2.60
2022-12-14T09:19:07.597Z,2.60
2022-12-14T09:21:34.986Z,2.60
2022-12-14T09:24:02.455Z,2.60
2022-12-14T09:26:29.962Z,2.60
2022-12-14T09:28:58.037Z,2.60
2022-12-14T09:31:27.858Z,2.60
2022-12-14T09:33:56.719Z,2.60
2022-12-14T09:36:27.190Z,2.50
2022-12-14T09:38:56.574Z,2.50
2022-12-14T09:41:33.431Z,2.40
2022-12-14T09:44:18.824Z,2.40
2022-12-14T09:47:05.286Z,2.40
2022-12-14T09:49:43.060Z,2.40
2022-12-14T09:52:19.119Z,2.40
2022-12-14T09:54:50.070Z,2.40
2022-12-14T09:57:34.520Z,2.40
2022-12-14T10:00:01.947Z,2.40
2022-12-14T10:03:17.782Z,2.40
2022-12-14T10:06:21.282Z,2.30
2022-12-14T10:09:07.576Z,2.30
2022-12-14T10:11:37.896Z,2.60
2022-12-14T10:14:27.686Z,2.30
2022-12-14T10:17:17.408Z,2.30
2022-12-14T10:19:52.127Z,2.40
2022-12-14T10:22:24.055Z,2.40
2022-12-14T10:25:16.813Z,2.30
2022-12-14T10:28:10.514Z,2.30
2022-12-14T10:30:41.804Z,2.30
2022-12-14T10:33:44.066Z,2.30
2022-12-14T10:36:29.985Z,2.30
2022-12-14T10:38:59.587Z,2.30
2022-12-14T10:42:01.365Z,2.30
2022-12-14T10:44:50.091Z,2.30
2022-12-14T10:47:34.944Z,2.40
2022-12-14T10:50:36.134Z,2.40
2022-12-14T10:53:10.279Z,2.50
2022-12-14T10:55:44.164Z,2.60
2022-12-14T10:58:12.581Z,2.60
2022-12-14T11:00:42.793Z,2.60
2022-12-14T11:03:15.451Z,2.60
2022-12-14T11:05:56.125Z,2.60
2022-12-14T11:08:48.905Z,2.70
2022-12-14T11:11:22.672Z,2.70
2022-12-14T11:14:07.053Z,2.70
2022-12-14T11:16:39.696Z,2.70
2022-12-14T11:19:28.221Z,2.70
2022-12-14T11:22:13.714Z,2.50
2022-12-14T11:24:48.140Z,2.80
2022-12-14T11:27:19.723Z,2.80
2022-12-14T11:29:51.126Z,2.80
2022-12-14T11:32:24.034Z,2.80
2022-12-14T11:34:59.318Z,2.80
2022-12-14T11:37:31.566Z,2.80
2022-12-14T11:40:05.256Z,2.80
2022-12-14T11:42:34.514Z,2.80
2022-12-14T11:45:33.629Z,2.80
2022-12-14T11:48:16.458Z,2.80
2022-12-14T11:50:46.223Z,2.80
2022-12-14T11:53:16.415Z,2.80
2022-12-14T11:55:53.603Z,3.10
2022-12-14T11:58:33.526Z,2.80
2022-12-14T12:10:51.023Z,2.90
2022-12-14T12:13:30.044Z,3.00
2022-12-14T12:16:01.617Z,3.00
2022-12-14T12:18:46.666Z,3.10
2022-12-14T12:21:35.805Z,3.10
2022-12-14T12:24:10.659Z,3.60
2022-12-14T12:26:52.729Z,3.20
2022-12-14T12:29:43.215Z,3.20
2022-12-14T12:32:26.362Z,3.20
2022-12-14T12:35:25.855Z,3.30
2022-12-14T12:41:12.738Z,3.60
2022-12-14T12:44:00.227Z,3.30
2022-12-14T12:46:43.933Z,3.30
2022-12-14T12:49:27.050Z,3.20
2022-12-14T12:52:03.451Z,3.50
2022-12-14T12:54:30.770Z,3.10
2022-12-14T12:57:00.746Z,3.20
2022-12-14T12:59:31.024Z,3.20
2022-12-14T13:02:06.489Z,3.20
2022-12-14T13:04:40.331Z,3.20
2022-12-14T13:07:25.034Z,3.20
2022-12-14T13:10:06.367Z,3.30
2022-12-14T13:12:59.637Z,3.30
2022-12-14T13:15:45.126Z,3.40
2022-12-14T13:21:39.146Z,3.40
2022-12-14T13:24:37.842Z,3.80
2022-12-14T13:30:54.722Z,3.00
2022-12-14T13:33:38.303Z,3.40
2022-12-14T13:36:29.905Z,3.50
2022-12-14T13:39:26.395Z,3.00
2022-12-14T13:42:29.315Z,3.30
2022-12-14T13:45:35.521Z,3.50
2022-12-14T13:48:08.954Z,3.60
2022-12-14T13:50:54.245Z,4.10
2022-12-14T13:59:50.655Z,3.70
2022-12-14T14:05:50.150Z,3.20
2022-12-14T14:11:41.390Z,3.70
2022-12-14T14:14:38.249Z,3.70
2022-12-14T14:20:41.225Z,3.80
2022-12-14T14:23:16.078Z,3.80
2022-12-14T14:25:52.034Z,3.90
2022-12-14T14:28:29.384Z,3.90
2022-12-14T14:31:43.294Z,3.90
2022-12-14T14:34:22.959Z,3.90
2022-12-14T14:36:52.692Z,3.90
2022-12-14T14:42:28.583Z,3.90
2022-12-14T15:00:48.005Z,4.30
2022-12-14T15:03:17.153Z,3.80
2022-12-14T15:05:44.855Z,3.80
2022-12-14T15:08:22.507Z,3.80
2022-12-14T15:17:24.193Z,3.40
2022-12-14T15:19:55.657Z,3.80
2022-12-14T15:22:30.699Z,3.70
2022-12-14T15:25:00.958Z,3.60
2022-12-14T15:27:40.249Z,4.00
2022-12-14T15:30:11.760Z,3.60
2022-12-14T15:32:47.658Z,3.60
2022-12-14T15:35:18.543Z,3.50
2022-12-14T15:37:53.518Z,3.50
2022-12-14T15:40:31.156Z,3.50
2022-12-14T15:43:01.653Z,3.50
2022-12-14T15:49:03.662Z,3.30
2022-12-14T15:51:58.322Z,3.30
2022-12-14T15:54:26.463Z,3.30
2022-12-14T15:56:56.781Z,3.30
2022-12-14T15:59:35.832Z,3.20
2022-12-14T16:02:31.034Z,3.20
2022-12-14T16:05:02.207Z,3.20
2022-12-14T16:07:41.513Z,3.10
2022-12-14T16:10:17.308Z,3.10
2022-12-14T16:12:49.880Z,3.00
2022-12-14T16:15:24.152Z,3.00
2022-12-14T16:18:00.949Z,3.00
2022-12-14T16:20:36.959Z,2.90
2022-12-14T16:23:14.807Z,2.90
2022-12-14T16:37:36.397Z,2.70
2022-12-14T16:40:04.482Z,2.60
2022-12-14T16:58:37.013Z,2.30
2022-12-14T17:01:09.670Z,2.30
2022-12-14T17:03:42.395Z,2.20
2022-12-14T17:06:41.494Z,2.60
2022-12-14T17:09:25.728Z,2.60
2022-12-14T17:11:58.798Z,2.10
2022-12-14T17:14:28.282Z,2.00
2022-12-14T17:17:03.936Z,2.40
2022-12-14T17:19:40.110Z,2.00
2022-12-14T17:22:26.673Z,1.90
2022-12-14T17:24:56.534Z,2.00
2022-12-14T17:27:28.315Z,2.20
2022-12-14T17:30:02.316Z,2.20
2022-12-14T17:32:31.257Z,1.80
2022-12-14T17:34:59.380Z,1.70
2022-12-14T17:37:36.501Z,1.70
2022-12-14T17:40:06.100Z,1.70
2022-12-14T17:42:47.557Z,1.70
2022-12-14T17:45:27.333Z,1.60
2022-12-14T17:48:09.402Z,1.60
2022-12-14T17:50:41.948Z,1.90
2022-12-14T17:53:34.136Z,1.50
2022-12-14T17:56:03.282Z,1.50
2022-12-14T17:58:32.867Z,1.40
2022-12-14T18:01:03.530Z,1.40
2022-12-14T18:03:37.847Z,1.40
2022-12-14T18:06:06.986Z,1.40
2022-12-14T18:08:35.485Z,1.30
2022-12-14T18:11:10.195Z,0.90
2022-12-14T18:13:46.408Z,1.30
2022-12-14T18:16:22.102Z,1.70
2022-12-14T18:18:56.007Z,1.30
2022-12-14T18:21:33.253Z,1.70
2022-12-14T18:24:01.013Z,1.30
2022-12-14T18:26:28.508Z,1.20
2022-12-14T18:28:56.229Z,1.20
2022-12-14T18:31:32.016Z,1.20
2022-12-14T18:33:59.806Z,1.20
2022-12-14T18:36:27.690Z,1.20
2022-12-14T18:38:56.037Z,1.20
2022-12-14T18:41:27.698Z,1.20
2022-12-14T18:43:57.417Z,1.10
2022-12-14T18:46:30.630Z,1.10
2022-12-14T18:49:03.372Z,0.90
2022-12-14T18:51:34.055Z,1.20
2022-12-14T18:54:07.860Z,1.20
2022-12-14T18:56:46.149Z,1.30
2022-12-14T18:59:24.141Z,1.40
2022-12-14T19:02:11.101Z,1.10
2022-12-14T20:03:22.203Z,0.80
2022-12-14T20:05:58.864Z,0.20
2022-12-14T20:08:30.726Z,0.60
2022-12-14T20:10:59.444Z,0.60
2022-12-14T20:13:30.830Z,0.20
2022-12-14T20:16:02.842Z,0.60
2022-12-14T20:28:23.326Z,0.20
2022-12-14T20:30:55.119Z,0.10
2022-12-14T20:33:29.526Z,0.20
2022-12-14T21:20:30.370Z,-0.10
2022-12-14T21:22:58.150Z,-0.10
2022-12-14T21:25:29.330Z,-0.10
2022-12-14T21:27:57.694Z,-0.20
2022-12-14T21:30:25.055Z,-0.20
2022-12-14T21:32:52.542Z,-0.10
2022-12-14T21:35:19.916Z,-0.10
2022-12-14T21:37:48.315Z,-0.20
2022-12-14T21:40:35.696Z,-0.20
2022-12-14T21:43:03.948Z,-0.20
2022-12-14T21:45:31.350Z,-0.20
2022-12-14T21:47:59.510Z,-0.20
2022-12-14T21:50:26.876Z,-0.20
2022-12-14T21:52:54.209Z,-0.30
2022-12-14T21:55:22.016Z,-0.30
2022-12-14T21:58:07.853Z,0.00
2022-12-14T22:00:37.933Z,-0.30
2022-12-14T22:03:05.472Z,-0.40
2022-12-14T22:05:32.861Z,-0.40
2022-12-14T22:08:00.320Z,-0.40
2022-12-14T22:10:27.702Z,-0.40
2022-12-14T22:12:55.511Z,-0.40
2022-12-14T22:15:22.856Z,-0.40
2022-12-14T22:17:51.713Z,-0.40
2022-12-14T22:20:19.341Z,-0.40
2022-12-14T22:22:46.896Z,-0.40
2022-12-14T22:25:15.434Z,-0.40
2022-12-14T22:27:42.936Z,-0.40
2022-12-14T22:30:17.464Z,-0.40
2022-12-14T22:32:44.728Z,0.10
2022-12-14T22:35:13.189Z,-0.40
2022-12-14T22:37:40.766Z,0.00
2022-12-14T22:40:08.698Z,-0.40
2022-12-14T22:42:36.028Z,-0.40
2022-12-14T22:45:03.684Z,-0.40
2022-12-14T22:47:31.204Z,-0.40
2022-12-14T22:49:58.479Z,-0.10
2022-12-14T22:52:25.774Z,-0.40
2022-12-14T22:54:54.169Z,-0.40
2022-12-14T22:57:22.376Z,-0.40
2022-12-14T23:00:04.787Z,-0.30
2022-12-14T23:02:32.550Z,-0.30
2022-12-14T23:05:00.442Z,-0.30
2022-12-14T23:07:28.263Z,-0.70
2022-12-14T23:10:14.231Z,-0.90
2022-12-14T23:13:00.131Z,-0.30
2022-12-14T23:15:46.015Z,-0.30
2022-12-14T23:18:31.839Z,-0.30
2022-12-14T23:21:17.630Z,0.10
2022-12-14T23:24:04.565Z,-0.30
2022-12-14T23:26:52.299Z,-0.30
2022-12-14T23:29:38.088Z,-0.10
2022-12-14T23:32:23.986Z,-0.20
2022-12-14T23:35:10.144Z,-0.20
2022-12-14T23:37:55.908Z,-0.20
2022-12-14T23:40:42.766Z,-0.20
2022-12-14T23:43:31.044Z,-0.20
2022-12-14T23:46:17.784Z,-0.20
2022-12-14T23:49:03.844Z,-0.20
2022-12-14T23:51:50.036Z,-0.20
2022-12-14T23:54:35.933Z,-0.20
2022-12-14T23:57:25.841Z,-0.20
